sensor_id;sensor_type;location;lat;lon;timestamp;P1;durP1;ratioP1;P2;durP2;ratioP2
12212;SDS011;6169;44.158;22.788;2022-11-21T00:01:14;16.38;;;11.40;;
12212;SDS011;6169;44.158;22.788;2022-11-21T00:06:19;14.13;;;8.35;;
12212;SDS011;6169;44.158;22.788;2022-11-21T00:11:22;15.25;;;10.10;;
12212;SDS011;6169;44.158;22.788;2022-11-21T00:16:26;13.50;;;10.20;;
12212;SDS011;6169;44.158;22.788;2022-11-21T00:21:28;15.55;;;10.80;;
12212;SDS011;6169;44.158;22.788;2022-11-21T00:26:30;15.55;;;9.80;;
12212;SDS011;6169;44.158;22.788;2022-11-21T00:31:34;14.38;;;10.05;;
12212;SDS011;6169;44.158;22.788;2022-11-21T00:36:36;8.75;;;7.85;;
12212;SDS011;6169;44.158;22.788;2022-11-21T00:41:38;9.23;;;6.70;;
12212;SDS011;6169;44.158;22.788;2022-11-21T00:46:42;11.32;;;6.75;;
12212;SDS011;6169;44.158;22.788;2022-11-21T00:51:44;7.20;;;6.03;;
12212;SDS011;6169;44.158;22.788;2022-11-21T00:56:47;15.00;;;8.60;;
12212;SDS011;6169;44.158;22.788;2022-11-21T01:01:50;7.45;;;5.93;;
12212;SDS011;6169;44.158;22.788;2022-11-21T01:06:52;8.35;;;6.65;;
12212;SDS011;6169;44.158;22.788;2022-11-21T01:11:55;6.22;;;5.57;;
12212;SDS011;6169;44.158;22.788;2022-11-21T01:16:58;6.57;;;4.80;;
12212;SDS011;6169;44.158;22.788;2022-11-21T01:22:00;4.10;;;3.70;;
12212;SDS011;6169;44.158;22.788;2022-11-21T01:27:02;3.53;;;3.22;;
12212;SDS011;6169;44.158;22.788;2022-11-21T01:32:06;3.17;;;2.70;;
12212;SDS011;6169;44.158;22.788;2022-11-21T01:37:08;2.67;;;2.47;;
12212;SDS011;6169;44.158;22.788;2022-11-21T01:42:11;3.88;;;3.55;;
12212;SDS011;6169;44.158;22.788;2022-11-21T01:47:15;2.95;;;2.72;;
12212;SDS011;6169;44.158;22.788;2022-11-21T01:52:18;3.33;;;2.33;;
12212;SDS011;6169;44.158;22.788;2022-11-21T01:57:27;2.60;;;2.38;;
12212;SDS011;6169;44.158;22.788;2022-11-21T02:02:35;2.92;;;1.80;;
12212;SDS011;6169;44.158;22.788;2022-11-21T02:07:40;2.45;;;1.67;;
12212;SDS011;6169;44.158;22.788;2022-11-21T02:12:47;1.90;;;1.75;;
12212;SDS011;6169;44.158;22.788;2022-11-21T02:17:52;1.58;;;1.48;;
12212;SDS011;6169;44.158;22.788;2022-11-21T02:22:55;3.05;;;2.17;;
12212;SDS011;6169;44.158;22.788;2022-11-21T02:28:07;2.38;;;2.17;;
12212;SDS011;6169;44.158;22.788;2022-11-21T02:33:12;3.08;;;1.02;;
12212;SDS011;6169;44.158;22.788;2022-11-21T02:38:15;1.20;;;1.10;;
12212;SDS011;6169;44.158;22.788;2022-11-21T02:43:23;2.60;;;0.43;;
12212;SDS011;6169;44.158;22.788;2022-11-21T02:48:28;0.57;;;0.57;;
12212;SDS011;6169;44.158;22.788;2022-11-21T02:53:30;0.55;;;0.32;;
12212;SDS011;6169;44.158;22.788;2022-11-21T02:58:34;1.65;;;0.95;;
12212;SDS011;6169;44.158;22.788;2022-11-21T03:03:36;0.55;;;0.32;;
12212;SDS011;6169;44.158;22.788;2022-11-21T03:08:38;0.70;;;0.30;;
12212;SDS011;6169;44.158;22.788;2022-11-21T03:13:42;5.50;;;0.85;;
12212;SDS011;6169;44.158;22.788;2022-11-21T03:18:44;1.58;;;0.30;;
12212;SDS011;6169;44.158;22.788;2022-11-21T03:23:46;0.17;;;0.17;;
12212;SDS011;6169;44.158;22.788;2022-11-21T03:28:50;0.63;;;0.10;;
12212;SDS011;6169;44.158;22.788;2022-11-21T03:33:52;1.17;;;0.10;;
12212;SDS011;6169;44.158;22.788;2022-11-21T03:38:54;1.25;;;0.38;;
12212;SDS011;6169;44.158;22.788;2022-11-21T03:44:00;1.20;;;0.30;;
12212;SDS011;6169;44.158;22.788;2022-11-21T03:49:03;0.60;;;0.10;;
12212;SDS011;6169;44.158;22.788;2022-11-21T03:54:06;0.22;;;0.22;;
12212;SDS011;6169;44.158;22.788;2022-11-21T03:59:10;0.00;;;0.00;;
12212;SDS011;6169;44.158;22.788;2022-11-21T04:04:12;0.00;;;0.00;;
12212;SDS011;6169;44.158;22.788;2022-11-21T04:09:14;0.35;;;0.10;;
12212;SDS011;6169;44.158;22.788;2022-11-21T04:14:18;1.55;;;0.43;;
12212;SDS011;6169;44.158;22.788;2022-11-21T04:19:20;1.10;;;0.00;;
12212;SDS011;6169;44.158;22.788;2022-11-21T04:24:22;0.98;;;0.20;;
12212;SDS011;6169;44.158;22.788;2022-11-21T04:29:26;0.43;;;0.20;;
12212;SDS011;6169;44.158;22.788;2022-11-21T04:34:28;0.40;;;0.20;;
12212;SDS011;6169;44.158;22.788;2022-11-21T04:39:30;0.20;;;0.13;;
12212;SDS011;6169;44.158;22.788;2022-11-21T04:44:33;0.03;;;0.00;;
12212;SDS011;6169;44.158;22.788;2022-11-21T04:49:36;0.57;;;0.00;;
12212;SDS011;6169;44.158;22.788;2022-11-21T04:54:38;0.20;;;0.00;;
12212;SDS011;6169;44.158;22.788;2022-11-21T04:59:41;0.00;;;0.00;;
12212;SDS011;6169;44.158;22.788;2022-11-21T05:04:43;0.00;;;0.00;;
12212;SDS011;6169;44.158;22.788;2022-11-21T05:09:45;0.55;;;0.20;;
12212;SDS011;6169;44.158;22.788;2022-11-21T05:14:49;1.00;;;0.20;;
12212;SDS011;6169;44.158;22.788;2022-11-21T05:19:51;0.52;;;0.00;;
12212;SDS011;6169;44.158;22.788;2022-11-21T05:24:53;1.73;;;1.55;;
12212;SDS011;6169;44.158;22.788;2022-11-21T05:29:57;0.60;;;0.20;;
12212;SDS011;6169;44.158;22.788;2022-11-21T05:34:59;0.00;;;0.00;;
12212;SDS011;6169;44.158;22.788;2022-11-21T05:40:01;0.22;;;0.20;;
12212;SDS011;6169;44.158;22.788;2022-11-21T05:45:06;0.98;;;0.10;;
12212;SDS011;6169;44.158;22.788;2022-11-21T05:50:09;0.50;;;0.50;;
12212;SDS011;6169;44.158;22.788;2022-11-21T05:55:11;0.08;;;0.00;;
12212;SDS011;6169;44.158;22.788;2022-11-21T06:00:16;1.42;;;1.33;;
12212;SDS011;6169;44.158;22.788;2022-11-21T06:05:19;3.13;;;2.83;;
12212;SDS011;6169;44.158;22.788;2022-11-21T06:10:21;6.60;;;3.92;;
12212;SDS011;6169;44.158;22.788;2022-11-21T06:15:24;2.97;;;2.10;;
12212;SDS011;6169;44.158;22.788;2022-11-21T06:20:27;2.97;;;1.92;;
12212;SDS011;6169;44.158;22.788;2022-11-21T06:25:29;1.42;;;1.02;;
12212;SDS011;6169;44.158;22.788;2022-11-21T06:30:32;0.60;;;0.47;;
12212;SDS011;6169;44.158;22.788;2022-11-21T06:35:36;1.55;;;0.82;;
12212;SDS011;6169;44.158;22.788;2022-11-21T06:40:39;0.43;;;0.32;;
12212;SDS011;6169;44.158;22.788;2022-11-21T06:45:43;1.05;;;0.70;;
12212;SDS011;6169;44.158;22.788;2022-11-21T06:50:45;0.82;;;0.75;;
12212;SDS011;6169;44.158;22.788;2022-11-21T06:55:47;1.33;;;0.70;;
12212;SDS011;6169;44.158;22.788;2022-11-21T07:00:50;1.00;;;0.38;;
12212;SDS011;6169;44.158;22.788;2022-11-21T07:05:53;0.20;;;0.10;;
12212;SDS011;6169;44.158;22.788;2022-11-21T07:10:59;0.68;;;0.40;;
12212;SDS011;6169;44.158;22.788;2022-11-21T07:16:05;0.45;;;0.20;;
12212;SDS011;6169;44.158;22.788;2022-11-21T07:21:08;0.10;;;0.10;;
12212;SDS011;6169;44.158;22.788;2022-11-21T07:26:11;0.60;;;0.22;;
12212;SDS011;6169;44.158;22.788;2022-11-21T07:31:14;0.30;;;0.20;;
12212;SDS011;6169;44.158;22.788;2022-11-21T07:36:16;0.95;;;0.40;;
12212;SDS011;6169;44.158;22.788;2022-11-21T07:41:18;0.77;;;0.20;;
12212;SDS011;6169;44.158;22.788;2022-11-21T07:46:22;1.35;;;0.35;;
12212;SDS011;6169;44.158;22.788;2022-11-21T07:51:24;0.32;;;0.28;;
12212;SDS011;6169;44.158;22.788;2022-11-21T07:56:26;0.30;;;0.30;;
12212;SDS011;6169;44.158;22.788;2022-11-21T08:01:30;0.60;;;0.60;;
12212;SDS011;6169;44.158;22.788;2022-11-21T08:06:32;48.83;;;23.58;;
12212;SDS011;6169;44.158;22.788;2022-11-21T08:11:35;3.10;;;2.78;;
12212;SDS011;6169;44.158;22.788;2022-11-21T08:16:39;6.85;;;5.05;;
12212;SDS011;6169;44.158;22.788;2022-11-21T08:21:41;3.13;;;1.67;;
12212;SDS011;6169;44.158;22.788;2022-11-21T08:26:43;1.08;;;0.85;;
12212;SDS011;6169;44.158;22.788;2022-11-21T08:31:47;0.77;;;0.77;;
12212;SDS011;6169;44.158;22.788;2022-11-21T08:36:49;0.70;;;0.70;;
12212;SDS011;6169;44.158;22.788;2022-11-21T08:41:52;3.85;;;2.70;;
12212;SDS011;6169;44.158;22.788;2022-11-21T08:47:05;1.23;;;1.00;;
12212;SDS011;6169;44.158;22.788;2022-11-21T08:52:07;18.05;;;10.30;;
12212;SDS011;6169;44.158;22.788;2022-11-21T08:57:09;5.03;;;3.15;;
12212;SDS011;6169;44.158;22.788;2022-11-21T09:02:13;5.60;;;3.40;;
12212;SDS011;6169;44.158;22.788;2022-11-21T09:07:15;2.20;;;1.85;;
12212;SDS011;6169;44.158;22.788;2022-11-21T09:12:17;3.67;;;1.58;;
12212;SDS011;6169;44.158;22.788;2022-11-21T09:17:21;1.50;;;1.10;;
12212;SDS011;6169;44.158;22.788;2022-11-21T09:22:40;5.22;;;2.88;;
12212;SDS011;6169;44.158;22.788;2022-11-21T09:27:42;3.42;;;2.38;;
12212;SDS011;6169;44.158;22.788;2022-11-21T09:32:46;2.83;;;1.75;;
12212;SDS011;6169;44.158;22.788;2022-11-21T09:37:48;5.43;;;1.95;;
12212;SDS011;6169;44.158;22.788;2022-11-21T09:48:29;1.05;;;0.93;;
12212;SDS011;6169;44.158;22.788;2022-11-21T09:53:36;3.55;;;2.72;;
12212;SDS011;6169;44.158;22.788;2022-11-21T09:58:42;0.73;;;0.60;;
12212;SDS011;6169;44.158;22.788;2022-11-21T10:03:51;2.33;;;1.65;;
12212;SDS011;6169;44.158;22.788;2022-11-21T10:08:55;1.52;;;0.82;;
12212;SDS011;6169;44.158;22.788;2022-11-21T10:14:06;1.00;;;0.90;;
12212;SDS011;6169;44.158;22.788;2022-11-21T10:19:21;2.75;;;1.60;;
12212;SDS011;6169;44.158;22.788;2022-11-21T10:24:38;1.38;;;1.20;;
12212;SDS011;6169;44.158;22.788;2022-11-21T10:29:50;1.92;;;1.75;;
12212;SDS011;6169;44.158;22.788;2022-11-21T10:35:00;1.52;;;1.40;;
12212;SDS011;6169;44.158;22.788;2022-11-21T10:40:15;1.80;;;1.58;;
12212;SDS011;6169;44.158;22.788;2022-11-21T10:45:25;3.78;;;2.08;;
12212;SDS011;6169;44.158;22.788;2022-11-21T10:50:30;2.90;;;1.92;;
12212;SDS011;6169;44.158;22.788;2022-11-21T10:55:42;8.15;;;5.28;;
12212;SDS011;6169;44.158;22.788;2022-11-21T11:01:01;2.20;;;2.05;;
12212;SDS011;6169;44.158;22.788;2022-11-21T11:06:05;2.00;;;1.60;;
12212;SDS011;6169;44.158;22.788;2022-11-21T11:11:11;1.88;;;1.60;;
12212;SDS011;6169;44.158;22.788;2022-11-21T11:16:16;2.97;;;2.47;;
12212;SDS011;6169;44.158;22.788;2022-11-21T11:21:22;3.53;;;2.22;;
12212;SDS011;6169;44.158;22.788;2022-11-21T11:26:26;1.98;;;1.65;;
12212;SDS011;6169;44.158;22.788;2022-11-21T11:31:37;2.65;;;2.33;;
12212;SDS011;6169;44.158;22.788;2022-11-21T11:36:52;3.47;;;2.60;;
12212;SDS011;6169;44.158;22.788;2022-11-21T11:42:05;3.75;;;2.45;;
12212;SDS011;6169;44.158;22.788;2022-11-21T11:47:45;3.58;;;2.60;;
12212;SDS011;6169;44.158;22.788;2022-11-21T11:52:56;3.90;;;3.20;;
12212;SDS011;6169;44.158;22.788;2022-11-21T11:58:05;3.63;;;3.20;;
12212;SDS011;6169;44.158;22.788;2022-11-21T12:03:15;3.78;;;3.20;;
12212;SDS011;6169;44.158;22.788;2022-11-21T12:08:24;3.58;;;3.03;;
12212;SDS011;6169;44.158;22.788;2022-11-21T12:13:34;5.30;;;3.50;;
12212;SDS011;6169;44.158;22.788;2022-11-21T12:18:39;4.18;;;3.22;;
12212;SDS011;6169;44.158;22.788;2022-11-21T12:23:50;4.47;;;4.05;;
12212;SDS011;6169;44.158;22.788;2022-11-21T12:28:58;5.28;;;3.28;;
12212;SDS011;6169;44.158;22.788;2022-11-21T12:34:20;4.43;;;3.72;;
12212;SDS011;6169;44.158;22.788;2022-11-21T12:39:48;4.53;;;3.38;;
12212;SDS011;6169;44.158;22.788;2022-11-21T12:45:02;6.18;;;5.20;;
12212;SDS011;6169;44.158;22.788;2022-11-21T12:50:19;7.10;;;4.80;;
12212;SDS011;6169;44.158;22.788;2022-11-21T12:55:47;5.60;;;4.65;;
12212;SDS011;6169;44.158;22.788;2022-11-21T13:01:01;8.02;;;5.18;;
12212;SDS011;6169;44.158;22.788;2022-11-21T13:06:16;6.00;;;4.97;;
12212;SDS011;6169;44.158;22.788;2022-11-21T13:11:32;8.00;;;6.00;;
12212;SDS011;6169;44.158;22.788;2022-11-21T13:17:02;6.53;;;5.45;;
12212;SDS011;6169;44.158;22.788;2022-11-21T13:27:50;7.90;;;6.57;;
12212;SDS011;6169;44.158;22.788;2022-11-21T13:32:54;9.27;;;5.53;;
12212;SDS011;6169;44.158;22.788;2022-11-21T13:37:59;6.93;;;4.85;;
12212;SDS011;6169;44.158;22.788;2022-11-21T13:54:04;7.93;;;6.72;;
12212;SDS011;6169;44.158;22.788;2022-11-21T13:59:36;12.93;;;9.02;;
12212;SDS011;6169;44.158;22.788;2022-11-21T14:05:03;11.82;;;7.35;;
12212;SDS011;6169;44.158;22.788;2022-11-21T14:10:19;7.78;;;6.03;;
12212;SDS011;6169;44.158;22.788;2022-11-21T14:15:37;11.35;;;7.55;;
12212;SDS011;6169;44.158;22.788;2022-11-21T14:20:48;9.95;;;7.78;;
12212;SDS011;6169;44.158;22.788;2022-11-21T14:25:53;10.07;;;7.28;;
12212;SDS011;6169;44.158;22.788;2022-11-21T14:31:00;10.13;;;7.75;;
12212;SDS011;6169;44.158;22.788;2022-11-21T14:36:06;9.18;;;6.47;;
12212;SDS011;6169;44.158;22.788;2022-11-21T14:46:37;12.40;;;6.78;;
12212;SDS011;6169;44.158;22.788;2022-11-21T14:51:40;44.92;;;25.52;;
12212;SDS011;6169;44.158;22.788;2022-11-21T14:56:45;14.10;;;8.75;;
12212;SDS011;6169;44.158;22.788;2022-11-21T15:02:00;19.55;;;12.88;;
12212;SDS011;6169;44.158;22.788;2022-11-21T15:07:14;10.23;;;7.72;;
12212;SDS011;6169;44.158;22.788;2022-11-21T15:12:20;9.20;;;7.38;;
12212;SDS011;6169;44.158;22.788;2022-11-21T15:17:29;9.63;;;7.15;;
12212;SDS011;6169;44.158;22.788;2022-11-21T15:22:32;13.10;;;9.75;;
12212;SDS011;6169;44.158;22.788;2022-11-21T15:27:38;19.13;;;12.43;;
12212;SDS011;6169;44.158;22.788;2022-11-21T15:43:35;10.98;;;7.68;;
12212;SDS011;6169;44.158;22.788;2022-11-21T15:48:44;9.95;;;7.70;;
12212;SDS011;6169;44.158;22.788;2022-11-21T15:53:48;11.57;;;8.05;;
12212;SDS011;6169;44.158;22.788;2022-11-21T15:58:51;13.82;;;9.32;;
12212;SDS011;6169;44.158;22.788;2022-11-21T16:03:56;13.23;;;8.55;;
12212;SDS011;6169;44.158;22.788;2022-11-21T16:09:00;13.60;;;8.95;;
12212;SDS011;6169;44.158;22.788;2022-11-21T16:14:03;13.57;;;7.90;;
12212;SDS011;6169;44.158;22.788;2022-11-21T16:19:08;10.88;;;7.65;;
12212;SDS011;6169;44.158;22.788;2022-11-21T16:24:11;11.00;;;7.35;;
12212;SDS011;6169;44.158;22.788;2022-11-21T16:29:13;13.93;;;7.05;;
12212;SDS011;6169;44.158;22.788;2022-11-21T16:34:18;10.35;;;7.15;;
12212;SDS011;6169;44.158;22.788;2022-11-21T16:39:21;13.32;;;8.10;;
12212;SDS011;6169;44.158;22.788;2022-11-21T16:44:25;12.07;;;9.25;;
12212;SDS011;6169;44.158;22.788;2022-11-21T16:49:32;21.13;;;13.63;;
12212;SDS011;6169;44.158;22.788;2022-11-21T16:54:35;16.02;;;8.95;;
12212;SDS011;6169;44.158;22.788;2022-11-21T16:59:37;14.95;;;9.80;;
12212;SDS011;6169;44.158;22.788;2022-11-21T17:04:41;14.70;;;10.05;;
12212;SDS011;6169;44.158;22.788;2022-11-21T17:09:43;12.80;;;9.70;;
12212;SDS011;6169;44.158;22.788;2022-11-21T17:14:45;13.68;;;8.70;;
12212;SDS011;6169;44.158;22.788;2022-11-21T17:19:49;22.73;;;15.35;;
12212;SDS011;6169;44.158;22.788;2022-11-21T17:24:53;14.57;;;9.82;;
12212;SDS011;6169;44.158;22.788;2022-11-21T17:29:55;14.65;;;11.60;;
12212;SDS011;6169;44.158;22.788;2022-11-21T17:34:59;14.00;;;8.88;;
12212;SDS011;6169;44.158;22.788;2022-11-21T17:40:01;13.75;;;9.50;;
12212;SDS011;6169;44.158;22.788;2022-11-21T17:45:06;20.30;;;11.57;;
12212;SDS011;6169;44.158;22.788;2022-11-21T17:50:10;12.52;;;9.50;;
12212;SDS011;6169;44.158;22.788;2022-11-21T17:55:13;15.43;;;10.35;;
12212;SDS011;6169;44.158;22.788;2022-11-21T18:00:15;13.10;;;9.63;;
12212;SDS011;6169;44.158;22.788;2022-11-21T18:05:19;11.57;;;8.27;;
12212;SDS011;6169;44.158;22.788;2022-11-21T18:10:22;11.75;;;8.70;;
12212;SDS011;6169;44.158;22.788;2022-11-21T18:15:24;12.20;;;8.73;;
12212;SDS011;6169;44.158;22.788;2022-11-21T18:20:27;14.68;;;10.63;;
12212;SDS011;6169;44.158;22.788;2022-11-21T18:25:30;14.63;;;8.55;;
12212;SDS011;6169;44.158;22.788;2022-11-21T18:30:35;11.70;;;8.20;;
12212;SDS011;6169;44.158;22.788;2022-11-21T18:35:40;10.68;;;8.05;;
12212;SDS011;6169;44.158;22.788;2022-11-21T18:40:43;10.30;;;7.35;;
12212;SDS011;6169;44.158;22.788;2022-11-21T18:45:45;10.68;;;7.85;;
12212;SDS011;6169;44.158;22.788;2022-11-21T18:50:49;13.65;;;8.63;;
12212;SDS011;6169;44.158;22.788;2022-11-21T18:55:51;12.38;;;8.13;;
12212;SDS011;6169;44.158;22.788;2022-11-21T19:00:58;12.93;;;7.78;;
12212;SDS011;6169;44.158;22.788;2022-11-21T19:06:02;10.15;;;7.70;;
12212;SDS011;6169;44.158;22.788;2022-11-21T19:11:08;9.23;;;7.32;;
12212;SDS011;6169;44.158;22.788;2022-11-21T19:16:13;11.07;;;6.78;;
12212;SDS011;6169;44.158;22.788;2022-11-21T19:21:18;13.45;;;7.32;;
12212;SDS011;6169;44.158;22.788;2022-11-21T19:26:20;10.90;;;6.82;;
12212;SDS011;6169;44.158;22.788;2022-11-21T19:31:23;16.75;;;10.23;;
12212;SDS011;6169;44.158;22.788;2022-11-21T19:36:27;13.93;;;8.68;;
12212;SDS011;6169;44.158;22.788;2022-11-21T19:41:29;14.80;;;8.93;;
12212;SDS011;6169;44.158;22.788;2022-11-21T19:46:32;16.13;;;10.27;;
12212;SDS011;6169;44.158;22.788;2022-11-21T19:51:37;12.07;;;8.93;;
12212;SDS011;6169;44.158;22.788;2022-11-21T19:56:40;13.85;;;9.15;;
12212;SDS011;6169;44.158;22.788;2022-11-21T20:01:43;15.27;;;10.07;;
12212;SDS011;6169;44.158;22.788;2022-11-21T20:06:46;13.38;;;9.38;;
12212;SDS011;6169;44.158;22.788;2022-11-21T20:11:49;13.85;;;8.60;;
12212;SDS011;6169;44.158;22.788;2022-11-21T20:16:53;12.32;;;8.75;;
12212;SDS011;6169;44.158;22.788;2022-11-21T20:21:56;13.83;;;9.70;;
12212;SDS011;6169;44.158;22.788;2022-11-21T20:26:59;14.50;;;10.27;;
12212;SDS011;6169;44.158;22.788;2022-11-21T20:32:01;15.80;;;9.63;;
12212;SDS011;6169;44.158;22.788;2022-11-21T20:37:05;14.23;;;10.27;;
12212;SDS011;6169;44.158;22.788;2022-11-21T20:42:07;15.70;;;8.93;;
12212;SDS011;6169;44.158;22.788;2022-11-21T20:47:09;13.20;;;9.83;;
12212;SDS011;6169;44.158;22.788;2022-11-21T20:52:13;14.37;;;9.10;;
12212;SDS011;6169;44.158;22.788;2022-11-21T20:57:15;13.03;;;8.37;;
12212;SDS011;6169;44.158;22.788;2022-11-21T21:02:17;9.57;;;6.90;;
12212;SDS011;6169;44.158;22.788;2022-11-21T21:07:20;10.73;;;6.97;;
12212;SDS011;6169;44.158;22.788;2022-11-21T21:12:23;9.80;;;6.67;;
12212;SDS011;6169;44.158;22.788;2022-11-21T21:17:26;7.97;;;5.87;;
12212;SDS011;6169;44.158;22.788;2022-11-21T21:22:30;9.43;;;5.87;;
12212;SDS011;6169;44.158;22.788;2022-11-21T21:27:32;8.70;;;6.20;;
12212;SDS011;6169;44.158;22.788;2022-11-21T21:32:35;8.73;;;6.27;;
12212;SDS011;6169;44.158;22.788;2022-11-21T21:37:39;7.67;;;5.97;;
12212;SDS011;6169;44.158;22.788;2022-11-21T21:42:41;6.67;;;5.70;;
12212;SDS011;6169;44.158;22.788;2022-11-21T21:47:43;10.47;;;7.13;;
12212;SDS011;6169;44.158;22.788;2022-11-21T21:52:47;9.33;;;6.03;;
12212;SDS011;6169;44.158;22.788;2022-11-21T21:57:49;12.10;;;8.13;;
12212;SDS011;6169;44.158;22.788;2022-11-21T22:02:51;9.97;;;6.70;;
12212;SDS011;6169;44.158;22.788;2022-11-21T22:07:55;9.90;;;6.87;;
12212;SDS011;6169;44.158;22.788;2022-11-21T22:12:59;10.60;;;6.73;;
12212;SDS011;6169;44.158;22.788;2022-11-21T22:18:01;13.10;;;7.40;;
12212;SDS011;6169;44.158;22.788;2022-11-21T22:23:04;8.67;;;6.97;;
12212;SDS011;6169;44.158;22.788;2022-11-21T22:28:06;11.23;;;6.80;;
12212;SDS011;6169;44.158;22.788;2022-11-21T22:33:09;10.20;;;7.27;;
12212;SDS011;6169;44.158;22.788;2022-11-21T22:38:13;11.30;;;7.57;;
12212;SDS011;6169;44.158;22.788;2022-11-21T22:43:16;10.53;;;6.30;;
12212;SDS011;6169;44.158;22.788;2022-11-21T22:48:18;11.87;;;7.33;;
12212;SDS011;6169;44.158;22.788;2022-11-21T22:53:21;10.07;;;6.73;;
12212;SDS011;6169;44.158;22.788;2022-11-21T22:58:25;12.53;;;8.17;;
12212;SDS011;6169;44.158;22.788;2022-11-21T23:03:30;10.27;;;6.87;;
12212;SDS011;6169;44.158;22.788;2022-11-21T23:08:35;10.73;;;8.00;;
12212;SDS011;6169;44.158;22.788;2022-11-21T23:13:38;10.63;;;7.20;;
12212;SDS011;6169;44.158;22.788;2022-11-21T23:18:41;11.73;;;7.57;;
12212;SDS011;6169;44.158;22.788;2022-11-21T23:23:45;11.50;;;7.30;;
12212;SDS011;6169;44.158;22.788;2022-11-21T23:28:48;13.67;;;8.40;;
12212;SDS011;6169;44.158;22.788;2022-11-21T23:33:50;10.73;;;7.50;;
12212;SDS011;6169;44.158;22.788;2022-11-21T23:38:53;13.90;;;8.63;;
12212;SDS011;6169;44.158;22.788;2022-11-21T23:43:56;11.00;;;7.43;;
12212;SDS011;6169;44.158;22.788;2022-11-21T23:48:59;13.30;;;8.13;;
12212;SDS011;6169;44.158;22.788;2022-11-21T23:54:02;11.03;;;8.30;;
12212;SDS011;6169;44.158;22.788;2022-11-21T23:59:05;12.80;;;8.67;;
